sensor_id;sensor_type;location;lat;lon;timestamp;temperature;humidity
33863;DHT22;20158;51.436;-2.742;2022-10-22T00:00:16;16.50;75.70
33863;DHT22;20158;51.436;-2.742;2022-10-22T00:02:43;16.50;75.20
33863;DHT22;20158;51.436;-2.742;2022-10-22T00:05:09;16.40;75.00
33863;DHT22;20158;51.436;-2.742;2022-10-22T00:07:35;16.40;75.10
33863;DHT22;20158;51.436;-2.742;2022-10-22T00:10:03;16.40;75.10
33863;DHT22;20158;51.436;-2.742;2022-10-22T00:12:29;16.40;75.10
33863;DHT22;20158;51.436;-2.742;2022-10-22T00:14:56;16.40;75.20
33863;DHT22;20158;51.436;-2.742;2022-10-22T00:17:22;16.30;75.00
33863;DHT22;20158;51.436;-2.742;2022-10-22T00:19:48;16.40;75.20
33863;DHT22;20158;51.436;-2.742;2022-10-22T00:22:13;16.30;75.10
33863;DHT22;20158;51.436;-2.742;2022-10-22T00:24:40;16.40;75.30
33863;DHT22;20158;51.436;-2.742;2022-10-22T00:27:08;16.40;75.30
33863;DHT22;20158;51.436;-2.742;2022-10-22T00:29:34;16.30;75.10
33863;DHT22;20158;51.436;-2.742;2022-10-22T00:32:00;16.40;75.30
33863;DHT22;20158;51.436;-2.742;2022-10-22T00:34:26;16.30;75.10
33863;DHT22;20158;51.436;-2.742;2022-10-22T00:36:52;16.30;75.20
33863;DHT22;20158;51.436;-2.742;2022-10-22T00:39:20;16.30;75.20
33863;DHT22;20158;51.436;-2.742;2022-10-22T00:41:48;16.40;75.40
33863;DHT22;20158;51.436;-2.742;2022-10-22T00:47:19;16.40;75.40
33863;DHT22;20158;51.436;-2.742;2022-10-22T00:49:47;16.40;75.30
33863;DHT22;20158;51.436;-2.742;2022-10-22T00:52:13;16.40;75.30
33863;DHT22;20158;51.436;-2.742;2022-10-22T00:54:40;16.40;75.40
33863;DHT22;20158;51.436;-2.742;2022-10-22T00:57:07;16.40;75.30
33863;DHT22;20158;51.436;-2.742;2022-10-22T00:59:33;16.40;75.30
33863;DHT22;20158;51.436;-2.742;2022-10-22T01:01:59;16.40;75.30
33863;DHT22;20158;51.436;-2.742;2022-10-22T01:04:25;16.40;75.40
33863;DHT22;20158;51.436;-2.742;2022-10-22T01:06:51;16.40;75.30
33863;DHT22;20158;51.436;-2.742;2022-10-22T01:09:45;16.40;75.30
33863;DHT22;20158;51.436;-2.742;2022-10-22T01:12:17;16.40;75.40
33863;DHT22;20158;51.436;-2.742;2022-10-22T01:15:21;16.40;75.30
33863;DHT22;20158;51.436;-2.742;2022-10-22T01:17:54;16.40;75.20
33863;DHT22;20158;51.436;-2.742;2022-10-22T01:25:57;16.40;75.30
33863;DHT22;20158;51.436;-2.742;2022-10-22T01:31:12;16.30;75.10
33863;DHT22;20158;51.436;-2.742;2022-10-22T01:33:41;16.40;75.30
33863;DHT22;20158;51.436;-2.742;2022-10-22T01:36:08;16.40;75.30
33863;DHT22;20158;51.436;-2.742;2022-10-22T01:38:36;16.30;75.20
33863;DHT22;20158;51.436;-2.742;2022-10-22T01:41:02;16.40;75.30
33863;DHT22;20158;51.436;-2.742;2022-10-22T01:43:29;16.40;75.40
33863;DHT22;20158;51.436;-2.742;2022-10-22T01:46:00;16.30;75.20
33863;DHT22;20158;51.436;-2.742;2022-10-22T01:51:29;16.30;75.20
33863;DHT22;20158;51.436;-2.742;2022-10-22T02:00:07;16.40;75.30
33863;DHT22;20158;51.436;-2.742;2022-10-22T02:02:59;16.30;75.10
33863;DHT22;20158;51.436;-2.742;2022-10-22T02:08:12;16.30;75.10
33863;DHT22;20158;51.436;-2.742;2022-10-22T02:10:41;16.20;75.00
33863;DHT22;20158;51.436;-2.742;2022-10-22T02:13:11;16.20;75.00
33863;DHT22;20158;51.436;-2.742;2022-10-22T02:15:40;16.20;75.00
33863;DHT22;20158;51.436;-2.742;2022-10-22T02:18:08;16.20;75.10
33863;DHT22;20158;51.436;-2.742;2022-10-22T02:20:37;16.10;74.90
33863;DHT22;20158;51.436;-2.742;2022-10-22T02:23:07;16.10;75.00
33863;DHT22;20158;51.436;-2.742;2022-10-22T02:25:38;16.10;75.00
33863;DHT22;20158;51.436;-2.742;2022-10-22T02:28:18;16.00;74.90
33863;DHT22;20158;51.436;-2.742;2022-10-22T02:30:51;16.00;75.20
33863;DHT22;20158;51.436;-2.742;2022-10-22T02:33:29;16.00;75.00
33863;DHT22;20158;51.436;-2.742;2022-10-22T02:35:57;15.90;74.70
33863;DHT22;20158;51.436;-2.742;2022-10-22T02:38:24;15.90;74.80
33863;DHT22;20158;51.436;-2.742;2022-10-22T02:40:51;15.80;74.70
33863;DHT22;20158;51.436;-2.742;2022-10-22T02:43:19;15.80;74.70
33863;DHT22;20158;51.436;-2.742;2022-10-22T02:45:45;15.70;74.60
33863;DHT22;20158;51.436;-2.742;2022-10-22T02:48:11;15.70;74.70
33863;DHT22;20158;51.436;-2.742;2022-10-22T02:50:37;15.70;74.70
33863;DHT22;20158;51.436;-2.742;2022-10-22T02:53:03;15.70;74.70
33863;DHT22;20158;51.436;-2.742;2022-10-22T02:55:30;15.60;74.60
33863;DHT22;20158;51.436;-2.742;2022-10-22T02:57:57;15.60;74.70
33863;DHT22;20158;51.436;-2.742;2022-10-22T03:00:23;15.60;74.70
33863;DHT22;20158;51.436;-2.742;2022-10-22T03:02:48;15.50;74.60
33863;DHT22;20158;51.436;-2.742;2022-10-22T03:05:14;15.50;74.60
33863;DHT22;20158;51.436;-2.742;2022-10-22T03:07:40;15.50;74.60
33863;DHT22;20158;51.436;-2.742;2022-10-22T03:10:07;15.40;74.50
33863;DHT22;20158;51.436;-2.742;2022-10-22T03:12:32;15.50;74.70
33863;DHT22;20158;51.436;-2.742;2022-10-22T03:14:58;15.40;74.60
33863;DHT22;20158;51.436;-2.742;2022-10-22T03:17:24;15.40;74.60
33863;DHT22;20158;51.436;-2.742;2022-10-22T03:19:50;15.40;74.60
33863;DHT22;20158;51.436;-2.742;2022-10-22T03:22:22;15.30;74.40
33863;DHT22;20158;51.436;-2.742;2022-10-22T03:24:53;15.30;74.50
33863;DHT22;20158;51.436;-2.742;2022-10-22T03:27:21;15.30;74.50
33863;DHT22;20158;51.436;-2.742;2022-10-22T03:29:49;15.20;74.30
33863;DHT22;20158;51.436;-2.742;2022-10-22T03:32:16;15.20;74.30
33863;DHT22;20158;51.436;-2.742;2022-10-22T03:34:42;15.20;74.40
33863;DHT22;20158;51.436;-2.742;2022-10-22T03:37:08;15.20;74.40
33863;DHT22;20158;51.436;-2.742;2022-10-22T03:39:35;15.10;74.30
33863;DHT22;20158;51.436;-2.742;2022-10-22T03:42:03;15.10;74.30
33863;DHT22;20158;51.436;-2.742;2022-10-22T03:44:29;15.10;74.30
33863;DHT22;20158;51.436;-2.742;2022-10-22T03:46:56;15.00;74.20
33863;DHT22;20158;51.436;-2.742;2022-10-22T03:49:22;15.00;74.30
33863;DHT22;20158;51.436;-2.742;2022-10-22T03:51:49;14.90;74.10
33863;DHT22;20158;51.436;-2.742;2022-10-22T03:54:17;14.90;74.20
33863;DHT22;20158;51.436;-2.742;2022-10-22T03:56:42;14.90;74.30
33863;DHT22;20158;51.436;-2.742;2022-10-22T03:59:09;14.80;74.10
33863;DHT22;20158;51.436;-2.742;2022-10-22T04:01:35;14.80;74.20
33863;DHT22;20158;51.436;-2.742;2022-10-22T04:04:02;14.80;74.20
33863;DHT22;20158;51.436;-2.742;2022-10-22T04:06:30;14.80;74.20
33863;DHT22;20158;51.436;-2.742;2022-10-22T04:08:56;14.70;74.10
33863;DHT22;20158;51.436;-2.742;2022-10-22T04:11:22;14.60;73.90
33863;DHT22;20158;51.436;-2.742;2022-10-22T04:13:48;14.60;74.00
33863;DHT22;20158;51.436;-2.742;2022-10-22T04:16:21;14.60;74.10
33863;DHT22;20158;51.436;-2.742;2022-10-22T04:18:48;14.50;73.90
33863;DHT22;20158;51.436;-2.742;2022-10-22T04:21:18;14.60;74.10
33863;DHT22;20158;51.436;-2.742;2022-10-22T04:23:49;14.50;74.00
33863;DHT22;20158;51.436;-2.742;2022-10-22T04:26:16;14.50;74.00
33863;DHT22;20158;51.436;-2.742;2022-10-22T04:28:42;14.50;74.00
33863;DHT22;20158;51.436;-2.742;2022-10-22T04:31:11;14.40;73.90
33863;DHT22;20158;51.436;-2.742;2022-10-22T04:33:38;14.40;74.00
33863;DHT22;20158;51.436;-2.742;2022-10-22T04:36:09;14.40;74.00
33863;DHT22;20158;51.436;-2.742;2022-10-22T04:38:37;14.40;74.00
33863;DHT22;20158;51.436;-2.742;2022-10-22T04:41:14;14.40;74.00
33863;DHT22;20158;51.436;-2.742;2022-10-22T04:43:41;14.30;73.90
33863;DHT22;20158;51.436;-2.742;2022-10-22T04:46:10;14.40;74.00
33863;DHT22;20158;51.436;-2.742;2022-10-22T04:48:38;14.40;74.10
33863;DHT22;20158;51.436;-2.742;2022-10-22T04:51:07;14.30;73.90
33863;DHT22;20158;51.436;-2.742;2022-10-22T04:53:34;14.30;73.90
33863;DHT22;20158;51.436;-2.742;2022-10-22T04:56:27;14.30;73.90
33863;DHT22;20158;51.436;-2.742;2022-10-22T04:59:00;14.30;74.00
33863;DHT22;20158;51.436;-2.742;2022-10-22T05:01:29;14.30;73.90
33863;DHT22;20158;51.436;-2.742;2022-10-22T05:03:58;14.30;73.90
33863;DHT22;20158;51.436;-2.742;2022-10-22T05:06:25;14.30;73.90
33863;DHT22;20158;51.436;-2.742;2022-10-22T05:08:57;14.20;73.70
33863;DHT22;20158;51.436;-2.742;2022-10-22T05:11:26;14.20;73.80
33863;DHT22;20158;51.436;-2.742;2022-10-22T05:13:55;14.20;73.80
33863;DHT22;20158;51.436;-2.742;2022-10-22T05:16:22;14.10;73.70
33863;DHT22;20158;51.436;-2.742;2022-10-22T05:18:47;14.10;73.70
33863;DHT22;20158;51.436;-2.742;2022-10-22T05:21:17;14.10;73.70
33863;DHT22;20158;51.436;-2.742;2022-10-22T05:23:44;14.10;74.30
33863;DHT22;20158;51.436;-2.742;2022-10-22T05:26:11;14.10;73.80
33863;DHT22;20158;51.436;-2.742;2022-10-22T05:28:38;14.00;73.60
33863;DHT22;20158;51.436;-2.742;2022-10-22T05:31:07;14.00;73.60
33863;DHT22;20158;51.436;-2.742;2022-10-22T05:33:33;13.90;73.40
33863;DHT22;20158;51.436;-2.742;2022-10-22T05:36:01;13.90;73.50
33863;DHT22;20158;51.436;-2.742;2022-10-22T05:38:27;13.90;73.50
33863;DHT22;20158;51.436;-2.742;2022-10-22T05:41:09;13.90;73.50
33863;DHT22;20158;51.436;-2.742;2022-10-22T05:43:37;13.90;74.20
33863;DHT22;20158;51.436;-2.742;2022-10-22T05:46:12;13.80;73.40
33863;DHT22;20158;51.436;-2.742;2022-10-22T05:48:38;13.80;73.50
33863;DHT22;20158;51.436;-2.742;2022-10-22T05:51:06;13.80;73.50
33863;DHT22;20158;51.436;-2.742;2022-10-22T05:53:34;13.80;73.50
33863;DHT22;20158;51.436;-2.742;2022-10-22T05:56:06;13.70;73.40
33863;DHT22;20158;51.436;-2.742;2022-10-22T05:58:33;13.70;73.60
33863;DHT22;20158;51.436;-2.742;2022-10-22T06:01:11;13.70;74.00
33863;DHT22;20158;51.436;-2.742;2022-10-22T06:03:38;13.70;74.30
33863;DHT22;20158;51.436;-2.742;2022-10-22T06:08:48;13.70;74.40
33863;DHT22;20158;51.436;-2.742;2022-10-22T06:11:17;13.70;74.40
33863;DHT22;20158;51.436;-2.742;2022-10-22T06:13:44;13.70;74.40
33863;DHT22;20158;51.436;-2.742;2022-10-22T06:16:10;13.60;74.30
33863;DHT22;20158;51.436;-2.742;2022-10-22T06:18:39;13.60;74.40
33863;DHT22;20158;51.436;-2.742;2022-10-22T06:21:08;13.60;74.40
33863;DHT22;20158;51.436;-2.742;2022-10-22T06:23:36;13.60;74.50
33863;DHT22;20158;51.436;-2.742;2022-10-22T06:26:03;13.60;74.60
33863;DHT22;20158;51.436;-2.742;2022-10-22T06:28:30;13.60;74.70
33863;DHT22;20158;51.436;-2.742;2022-10-22T06:30:57;13.60;74.70
33863;DHT22;20158;51.436;-2.742;2022-10-22T06:33:24;13.60;74.70
33863;DHT22;20158;51.436;-2.742;2022-10-22T06:35:50;13.70;74.90
33863;DHT22;20158;51.436;-2.742;2022-10-22T06:38:16;13.70;75.00
33863;DHT22;20158;51.436;-2.742;2022-10-22T06:40:43;13.80;75.50
33863;DHT22;20158;51.436;-2.742;2022-10-22T06:43:10;13.80;75.60
33863;DHT22;20158;51.436;-2.742;2022-10-22T06:45:38;13.80;75.80
33863;DHT22;20158;51.436;-2.742;2022-10-22T06:48:05;13.90;76.30
33863;DHT22;20158;51.436;-2.742;2022-10-22T06:50:33;14.00;76.60
33863;DHT22;20158;51.436;-2.742;2022-10-22T06:52:59;14.10;77.00
33863;DHT22;20158;51.436;-2.742;2022-10-22T06:55:25;14.20;77.20
33863;DHT22;20158;51.436;-2.742;2022-10-22T06:57:51;14.30;77.60
33863;DHT22;20158;51.436;-2.742;2022-10-22T07:00:17;14.40;77.90
33863;DHT22;20158;51.436;-2.742;2022-10-22T07:02:43;14.60;78.40
33863;DHT22;20158;51.436;-2.742;2022-10-22T07:05:09;14.70;78.70
33863;DHT22;20158;51.436;-2.742;2022-10-22T07:07:36;14.80;78.90
33863;DHT22;20158;51.436;-2.742;2022-10-22T07:10:04;14.90;79.10
33863;DHT22;20158;51.436;-2.742;2022-10-22T07:12:30;15.00;79.20
33863;DHT22;20158;51.436;-2.742;2022-10-22T07:14:58;15.10;79.30
33863;DHT22;20158;51.436;-2.742;2022-10-22T07:17:27;15.10;79.20
33863;DHT22;20158;51.436;-2.742;2022-10-22T07:19:53;15.20;79.40
33863;DHT22;20158;51.436;-2.742;2022-10-22T07:22:19;15.20;79.40
33863;DHT22;20158;51.436;-2.742;2022-10-22T07:24:44;15.20;79.30
33863;DHT22;20158;51.436;-2.742;2022-10-22T07:27:13;15.20;79.30
33863;DHT22;20158;51.436;-2.742;2022-10-22T07:29:39;15.20;79.40
33863;DHT22;20158;51.436;-2.742;2022-10-22T07:32:06;15.20;79.50
33863;DHT22;20158;51.436;-2.742;2022-10-22T07:34:33;15.20;79.70
33863;DHT22;20158;51.436;-2.742;2022-10-22T07:37:01;15.20;79.80
33863;DHT22;20158;51.436;-2.742;2022-10-22T07:39:28;15.20;79.90
33863;DHT22;20158;51.436;-2.742;2022-10-22T07:41:54;15.30;80.20
33863;DHT22;20158;51.436;-2.742;2022-10-22T07:44:20;15.30;80.20
33863;DHT22;20158;51.436;-2.742;2022-10-22T07:46:46;15.40;80.40
33863;DHT22;20158;51.436;-2.742;2022-10-22T07:49:12;15.40;80.40
33863;DHT22;20158;51.436;-2.742;2022-10-22T07:51:38;15.40;80.40
33863;DHT22;20158;51.436;-2.742;2022-10-22T07:54:04;15.40;80.30
33863;DHT22;20158;51.436;-2.742;2022-10-22T07:56:30;15.50;80.50
33863;DHT22;20158;51.436;-2.742;2022-10-22T07:58:57;15.50;80.40
33863;DHT22;20158;51.436;-2.742;2022-10-22T08:01:22;15.50;80.40
33863;DHT22;20158;51.436;-2.742;2022-10-22T08:03:48;15.50;80.30
33863;DHT22;20158;51.436;-2.742;2022-10-22T08:06:14;15.50;80.30
33863;DHT22;20158;51.436;-2.742;2022-10-22T08:08:41;15.60;80.30
33863;DHT22;20158;51.436;-2.742;2022-10-22T08:11:09;15.60;80.20
33863;DHT22;20158;51.436;-2.742;2022-10-22T08:13:35;15.60;80.10
33863;DHT22;20158;51.436;-2.742;2022-10-22T08:16:02;15.70;80.20
33863;DHT22;20158;51.436;-2.742;2022-10-22T08:18:29;15.80;80.30
33863;DHT22;20158;51.436;-2.742;2022-10-22T08:20:55;15.80;80.30
33863;DHT22;20158;51.436;-2.742;2022-10-22T08:23:22;15.90;80.20
33863;DHT22;20158;51.436;-2.742;2022-10-22T08:25:48;15.90;80.00
33863;DHT22;20158;51.436;-2.742;2022-10-22T08:28:13;16.00;80.00
33863;DHT22;20158;51.436;-2.742;2022-10-22T08:30:41;16.00;79.90
33863;DHT22;20158;51.436;-2.742;2022-10-22T08:33:09;16.10;79.90
33863;DHT22;20158;51.436;-2.742;2022-10-22T08:35:35;16.10;79.80
33863;DHT22;20158;51.436;-2.742;2022-10-22T08:38:01;16.20;79.80
33863;DHT22;20158;51.436;-2.742;2022-10-22T08:40:32;16.20;79.60
33863;DHT22;20158;51.436;-2.742;2022-10-22T08:50:57;16.30;79.40
33863;DHT22;20158;51.436;-2.742;2022-10-22T08:53:43;16.30;79.20
33863;DHT22;20158;51.436;-2.742;2022-10-22T08:56:10;16.40;79.40
33863;DHT22;20158;51.436;-2.742;2022-10-22T08:59:16;16.50;79.40
33863;DHT22;20158;51.436;-2.742;2022-10-22T09:01:48;16.50;79.20
33863;DHT22;20158;51.436;-2.742;2022-10-22T09:06:53;16.70;79.10
33863;DHT22;20158;51.436;-2.742;2022-10-22T09:09:26;16.70;79.00
33863;DHT22;20158;51.436;-2.742;2022-10-22T09:11:56;16.80;78.90
33863;DHT22;20158;51.436;-2.742;2022-10-22T09:14:23;16.90;78.90
33863;DHT22;20158;51.436;-2.742;2022-10-22T09:20:02;17.00;78.70
33863;DHT22;20158;51.436;-2.742;2022-10-22T09:25:23;17.10;78.40
33863;DHT22;20158;51.436;-2.742;2022-10-22T09:27:50;17.20;78.30
33863;DHT22;20158;51.436;-2.742;2022-10-22T09:30:22;17.30;78.40
33863;DHT22;20158;51.436;-2.742;2022-10-22T09:32:59;17.30;78.10
33863;DHT22;20158;51.436;-2.742;2022-10-22T09:35:26;17.40;78.10
33863;DHT22;20158;51.436;-2.742;2022-10-22T09:37:54;17.50;78.00
33863;DHT22;20158;51.436;-2.742;2022-10-22T09:40:24;17.50;77.90
33863;DHT22;20158;51.436;-2.742;2022-10-22T09:42:50;17.50;77.80
33863;DHT22;20158;51.436;-2.742;2022-10-22T09:45:22;17.50;77.60
33863;DHT22;20158;51.436;-2.742;2022-10-22T09:47:49;17.60;77.70
33863;DHT22;20158;51.436;-2.742;2022-10-22T09:53:40;17.60;77.30
33863;DHT22;20158;51.436;-2.742;2022-10-22T09:56:38;17.60;77.10
33863;DHT22;20158;51.436;-2.742;2022-10-22T09:59:14;17.60;77.00
33863;DHT22;20158;51.436;-2.742;2022-10-22T10:01:41;17.70;77.00
33863;DHT22;20158;51.436;-2.742;2022-10-22T10:04:09;17.60;76.80
33863;DHT22;20158;51.436;-2.742;2022-10-22T10:06:38;17.60;76.60
33863;DHT22;20158;51.436;-2.742;2022-10-22T10:09:19;17.60;76.50
33863;DHT22;20158;51.436;-2.742;2022-10-22T10:14:39;17.60;76.20
33863;DHT22;20158;51.436;-2.742;2022-10-22T10:17:21;17.60;76.20
33863;DHT22;20158;51.436;-2.742;2022-10-22T10:28:13;17.60;76.20
33863;DHT22;20158;51.436;-2.742;2022-10-22T10:30:53;17.70;75.70
33863;DHT22;20158;51.436;-2.742;2022-10-22T10:33:32;17.70;75.60
33863;DHT22;20158;51.436;-2.742;2022-10-22T10:36:16;17.80;75.60
33863;DHT22;20158;51.436;-2.742;2022-10-22T10:39:00;17.80;75.30
33863;DHT22;20158;51.436;-2.742;2022-10-22T10:49:35;17.90;75.10
33863;DHT22;20158;51.436;-2.742;2022-10-22T10:55:27;18.10;74.80
33863;DHT22;20158;51.436;-2.742;2022-10-22T11:00:54;18.50;74.50
33863;DHT22;20158;51.436;-2.742;2022-10-22T11:06:18;19.00;74.20
33863;DHT22;20158;51.436;-2.742;2022-10-22T11:09:02;19.10;74.00
33863;DHT22;20158;51.436;-2.742;2022-10-22T11:12:00;19.20;73.70
33863;DHT22;20158;51.436;-2.742;2022-10-22T11:14:34;19.40;73.80
33863;DHT22;20158;51.436;-2.742;2022-10-22T11:17:10;19.50;73.60
33863;DHT22;20158;51.436;-2.742;2022-10-22T11:22:39;19.80;73.40
33863;DHT22;20158;51.436;-2.742;2022-10-22T11:25:17;20.00;73.40
33863;DHT22;20158;51.436;-2.742;2022-10-22T11:27:50;20.20;73.30
33863;DHT22;20158;51.436;-2.742;2022-10-22T11:30:23;20.30;73.00
33863;DHT22;20158;51.436;-2.742;2022-10-22T11:33:17;20.50;72.90
33863;DHT22;20158;51.436;-2.742;2022-10-22T11:35:45;20.70;72.70
33863;DHT22;20158;51.436;-2.742;2022-10-22T11:38:24;20.90;72.80
33863;DHT22;20158;51.436;-2.742;2022-10-22T11:40:56;21.10;72.50
33863;DHT22;20158;51.436;-2.742;2022-10-22T11:46:08;21.30;72.10
33863;DHT22;20158;51.436;-2.742;2022-10-22T11:51:39;21.70;71.80
33863;DHT22;20158;51.436;-2.742;2022-10-22T11:54:30;21.80;71.80
33863;DHT22;20158;51.436;-2.742;2022-10-22T11:59:46;22.10;71.40
33863;DHT22;20158;51.436;-2.742;2022-10-22T12:02:31;22.10;71.40
33863;DHT22;20158;51.436;-2.742;2022-10-22T12:05:34;22.10;71.20
33863;DHT22;20158;51.436;-2.742;2022-10-22T12:08:16;22.00;70.90
33863;DHT22;20158;51.436;-2.742;2022-10-22T12:16:47;22.20;70.90
33863;DHT22;20158;51.436;-2.742;2022-10-22T12:21:50;22.30;70.70
33863;DHT22;20158;51.436;-2.742;2022-10-22T12:24:19;22.40;70.80
33863;DHT22;20158;51.436;-2.742;2022-10-22T12:26:46;22.40;71.40
33863;DHT22;20158;51.436;-2.742;2022-10-22T12:29:15;22.40;71.00
33863;DHT22;20158;51.436;-2.742;2022-10-22T12:31:44;22.40;71.10
33863;DHT22;20158;51.436;-2.742;2022-10-22T12:34:20;22.50;71.30
33863;DHT22;20158;51.436;-2.742;2022-10-22T12:36:49;22.50;71.20
33863;DHT22;20158;51.436;-2.742;2022-10-22T12:39:21;22.50;71.10
33863;DHT22;20158;51.436;-2.742;2022-10-22T12:41:47;22.60;71.20
33863;DHT22;20158;51.436;-2.742;2022-10-22T12:44:15;22.60;71.20
33863;DHT22;20158;51.436;-2.742;2022-10-22T12:46:45;22.70;71.30
33863;DHT22;20158;51.436;-2.742;2022-10-22T12:49:20;22.70;71.20
33863;DHT22;20158;51.436;-2.742;2022-10-22T12:51:47;22.80;71.10
33863;DHT22;20158;51.436;-2.742;2022-10-22T12:54:28;22.80;71.10
33863;DHT22;20158;51.436;-2.742;2022-10-22T12:56:55;22.90;71.20
33863;DHT22;20158;51.436;-2.742;2022-10-22T12:59:36;23.00;71.30
33863;DHT22;20158;51.436;-2.742;2022-10-22T13:02:19;23.10;71.40
33863;DHT22;20158;51.436;-2.742;2022-10-22T13:07:42;23.40;71.70
33863;DHT22;20158;51.436;-2.742;2022-10-22T13:10:24;23.50;71.60
33863;DHT22;20158;51.436;-2.742;2022-10-22T13:12:55;23.60;71.50
33863;DHT22;20158;51.436;-2.742;2022-10-22T13:15:31;23.60;71.50
33863;DHT22;20158;51.436;-2.742;2022-10-22T13:18:21;23.60;71.40
33863;DHT22;20158;51.436;-2.742;2022-10-22T13:21:00;23.60;71.40
33863;DHT22;20158;51.436;-2.742;2022-10-22T13:23:30;23.60;71.40
33863;DHT22;20158;51.436;-2.742;2022-10-22T13:26:15;23.60;71.60
33863;DHT22;20158;51.436;-2.742;2022-10-22T13:28:48;23.60;71.50
33863;DHT22;20158;51.436;-2.742;2022-10-22T13:31:24;23.60;71.60
33863;DHT22;20158;51.436;-2.742;2022-10-22T13:33:54;23.50;71.20
33863;DHT22;20158;51.436;-2.742;2022-10-22T13:36:21;23.50;71.20
33863;DHT22;20158;51.436;-2.742;2022-10-22T13:38:48;23.50;71.10
33863;DHT22;20158;51.436;-2.742;2022-10-22T13:41:29;23.50;71.00
33863;DHT22;20158;51.436;-2.742;2022-10-22T13:43:57;23.40;70.70
33863;DHT22;20158;51.436;-2.742;2022-10-22T13:46:24;23.50;70.70
33863;DHT22;20158;51.436;-2.742;2022-10-22T13:48:53;23.50;70.60
33863;DHT22;20158;51.436;-2.742;2022-10-22T13:51:28;23.40;70.40
33863;DHT22;20158;51.436;-2.742;2022-10-22T13:53:58;23.40;70.30
33863;DHT22;20158;51.436;-2.742;2022-10-22T13:56:24;23.40;70.30
33863;DHT22;20158;51.436;-2.742;2022-10-22T13:58:50;23.30;70.10
33863;DHT22;20158;51.436;-2.742;2022-10-22T14:01:26;23.30;70.20
33863;DHT22;20158;51.436;-2.742;2022-10-22T14:03:54;23.20;70.10
33863;DHT22;20158;51.436;-2.742;2022-10-22T14:06:23;23.30;70.40
33863;DHT22;20158;51.436;-2.742;2022-10-22T14:08:54;23.30;70.40
33863;DHT22;20158;51.436;-2.742;2022-10-22T14:11:21;23.30;70.40
33863;DHT22;20158;51.436;-2.742;2022-10-22T14:13:49;23.30;70.40
33863;DHT22;20158;51.436;-2.742;2022-10-22T14:16:19;23.40;70.60
33863;DHT22;20158;51.436;-2.742;2022-10-22T14:18:45;23.40;71.10
33863;DHT22;20158;51.436;-2.742;2022-10-22T14:21:13;23.40;70.60
33863;DHT22;20158;51.436;-2.742;2022-10-22T14:23:41;23.40;70.50
33863;DHT22;20158;51.436;-2.742;2022-10-22T14:26:21;23.50;70.60
33863;DHT22;20158;51.436;-2.742;2022-10-22T14:28:47;23.60;70.50
33863;DHT22;20158;51.436;-2.742;2022-10-22T14:31:13;23.70;70.40
33863;DHT22;20158;51.436;-2.742;2022-10-22T14:33:41;23.70;70.20
33863;DHT22;20158;51.436;-2.742;2022-10-22T14:36:10;23.80;70.20
33863;DHT22;20158;51.436;-2.742;2022-10-22T14:38:37;23.80;70.10
33863;DHT22;20158;51.436;-2.742;2022-10-22T14:41:19;23.70;69.80
33863;DHT22;20158;51.436;-2.742;2022-10-22T14:43:47;23.70;69.80
33863;DHT22;20158;51.436;-2.742;2022-10-22T14:46:15;23.60;69.80
33863;DHT22;20158;51.436;-2.742;2022-10-22T14:48:41;23.60;69.90
33863;DHT22;20158;51.436;-2.742;2022-10-22T14:51:19;23.50;69.80
33863;DHT22;20158;51.436;-2.742;2022-10-22T14:53:46;23.40;69.80
33863;DHT22;20158;51.436;-2.742;2022-10-22T14:56:14;23.40;70.00
33863;DHT22;20158;51.436;-2.742;2022-10-22T14:58:40;23.30;70.00
33863;DHT22;20158;51.436;-2.742;2022-10-22T15:01:07;23.20;70.00
33863;DHT22;20158;51.436;-2.742;2022-10-22T15:03:34;23.20;70.10
33863;DHT22;20158;51.436;-2.742;2022-10-22T15:06:01;23.00;70.00
33863;DHT22;20158;51.436;-2.742;2022-10-22T15:08:27;23.00;70.70
33863;DHT22;20158;51.436;-2.742;2022-10-22T15:10:58;22.90;70.00
33863;DHT22;20158;51.436;-2.742;2022-10-22T15:13:26;22.80;69.90
33863;DHT22;20158;51.436;-2.742;2022-10-22T15:15:53;22.70;69.90
33863;DHT22;20158;51.436;-2.742;2022-10-22T15:18:20;22.60;69.90
33863;DHT22;20158;51.436;-2.742;2022-10-22T15:21:12;22.60;70.10
33863;DHT22;20158;51.436;-2.742;2022-10-22T15:23:39;22.50;70.00
33863;DHT22;20158;51.436;-2.742;2022-10-22T15:26:09;22.50;70.10
33863;DHT22;20158;51.436;-2.742;2022-10-22T15:28:37;22.40;70.00
33863;DHT22;20158;51.436;-2.742;2022-10-22T15:31:04;22.40;70.10
33863;DHT22;20158;51.436;-2.742;2022-10-22T15:33:30;22.30;70.00
33863;DHT22;20158;51.436;-2.742;2022-10-22T15:35:57;22.30;70.20
33863;DHT22;20158;51.436;-2.742;2022-10-22T15:38:28;22.20;70.10
33863;DHT22;20158;51.436;-2.742;2022-10-22T15:41:05;22.20;70.20
33863;DHT22;20158;51.436;-2.742;2022-10-22T15:43:32;22.20;70.30
33863;DHT22;20158;51.436;-2.742;2022-10-22T15:46:17;22.10;70.30
33863;DHT22;20158;51.436;-2.742;2022-10-22T15:48:43;22.10;70.30
33863;DHT22;20158;51.436;-2.742;2022-10-22T15:51:16;22.10;70.40
33863;DHT22;20158;51.436;-2.742;2022-10-22T15:53:43;22.10;70.40
33863;DHT22;20158;51.436;-2.742;2022-10-22T15:56:09;22.00;70.30
33863;DHT22;20158;51.436;-2.742;2022-10-22T15:58:36;22.00;70.40
33863;DHT22;20158;51.436;-2.742;2022-10-22T16:01:05;21.80;70.30
33863;DHT22;20158;51.436;-2.742;2022-10-22T16:03:32;21.80;70.50
33863;DHT22;20158;51.436;-2.742;2022-10-22T16:05:58;21.70;70.60
33863;DHT22;20158;51.436;-2.742;2022-10-22T16:08:25;21.60;70.80
33863;DHT22;20158;51.436;-2.742;2022-10-22T16:10:52;21.60;71.10
33863;DHT22;20158;51.436;-2.742;2022-10-22T16:13:19;21.50;71.20
33863;DHT22;20158;51.436;-2.742;2022-10-22T16:15:47;21.50;71.50
33863;DHT22;20158;51.436;-2.742;2022-10-22T16:18:13;21.50;71.70
33863;DHT22;20158;51.436;-2.742;2022-10-22T16:20:40;21.50;71.90
33863;DHT22;20158;51.436;-2.742;2022-10-22T16:23:06;21.50;72.10
33863;DHT22;20158;51.436;-2.742;2022-10-22T16:25:40;21.50;72.40
33863;DHT22;20158;51.436;-2.742;2022-10-22T16:28:07;21.50;73.00
33863;DHT22;20158;51.436;-2.742;2022-10-22T16:30:36;21.50;73.10
33863;DHT22;20158;51.436;-2.742;2022-10-22T16:33:03;21.50;73.90
33863;DHT22;20158;51.436;-2.742;2022-10-22T16:35:30;21.40;73.30
33863;DHT22;20158;51.436;-2.742;2022-10-22T16:37:56;21.40;73.50
33863;DHT22;20158;51.436;-2.742;2022-10-22T16:40:22;21.30;73.50
33863;DHT22;20158;51.436;-2.742;2022-10-22T16:42:48;21.30;73.80
33863;DHT22;20158;51.436;-2.742;2022-10-22T16:45:15;21.20;73.80
33863;DHT22;20158;51.436;-2.742;2022-10-22T16:47:42;21.20;74.00
33863;DHT22;20158;51.436;-2.742;2022-10-22T16:50:11;21.20;74.20
33863;DHT22;20158;51.436;-2.742;2022-10-22T16:52:37;21.10;74.10
33863;DHT22;20158;51.436;-2.742;2022-10-22T16:55:04;21.10;74.30
33863;DHT22;20158;51.436;-2.742;2022-10-22T16:57:30;21.00;74.50
33863;DHT22;20158;51.436;-2.742;2022-10-22T16:59:57;21.00;74.30
33863;DHT22;20158;51.436;-2.742;2022-10-22T17:02:23;20.90;74.30
33863;DHT22;20158;51.436;-2.742;2022-10-22T17:04:50;20.90;74.40
33863;DHT22;20158;51.436;-2.742;2022-10-22T17:07:16;20.80;74.30